sensor_id;sensor_type;location;lat;lon;timestamp;temperature;humidity
47813;DHT22;34221;45.296;9.516;2023-08-07T00:00:05;21.70;26.60
47813;DHT22;34221;45.296;9.516;2023-08-07T00:00:20;21.70;30.00
47813;DHT22;34221;45.296;9.516;2023-08-07T00:00:35;21.70;27.80
47813;DHT22;34221;45.296;9.516;2023-08-07T00:00:50;21.70;26.90
47813;DHT22;34221;45.296;9.516;2023-08-07T00:01:05;21.70;27.20
47813;DHT22;34221;45.296;9.516;2023-08-07T00:01:20;21.70;26.40
47813;DHT22;34221;45.296;9.516;2023-08-07T00:01:35;21.70;26.90
47813;DHT22;34221;45.296;9.516;2023-08-07T00:01:50;21.70;27.20
47813;DHT22;34221;45.296;9.516;2023-08-07T00:02:05;21.70;27.50
47813;DHT22;34221;45.296;9.516;2023-08-07T00:02:21;21.60;28.30
47813;DHT22;34221;45.296;9.516;2023-08-07T00:02:36;21.60;27.30
47813;DHT22;34221;45.296;9.516;2023-08-07T00:02:51;21.60;27.90
47813;DHT22;34221;45.296;9.516;2023-08-07T00:03:06;21.60;27.10
47813;DHT22;34221;45.296;9.516;2023-08-07T00:03:21;21.60;27.20
47813;DHT22;34221;45.296;9.516;2023-08-07T00:03:36;21.60;28.60
47813;DHT22;34221;45.296;9.516;2023-08-07T00:03:51;21.60;28.50
47813;DHT22;34221;45.296;9.516;2023-08-07T00:04:06;21.60;29.00
47813;DHT22;34221;45.296;9.516;2023-08-07T00:04:21;21.60;28.60
47813;DHT22;34221;45.296;9.516;2023-08-07T00:04:36;21.60;27.20
47813;DHT22;34221;45.296;9.516;2023-08-07T00:04:51;21.60;27.20
47813;DHT22;34221;45.296;9.516;2023-08-07T00:05:06;21.60;27.90
47813;DHT22;34221;45.296;9.516;2023-08-07T00:05:21;21.60;27.50
47813;DHT22;34221;45.296;9.516;2023-08-07T00:05:36;21.50;27.20
47813;DHT22;34221;45.296;9.516;2023-08-07T00:05:51;21.50;27.50
47813;DHT22;34221;45.296;9.516;2023-08-07T00:06:06;21.50;27.90
47813;DHT22;34221;45.296;9.516;2023-08-07T00:06:21;21.50;28.00
47813;DHT22;34221;45.296;9.516;2023-08-07T00:06:36;21.50;27.00
47813;DHT22;34221;45.296;9.516;2023-08-07T00:06:51;21.50;27.10
47813;DHT22;34221;45.296;9.516;2023-08-07T00:07:06;21.40;28.00
47813;DHT22;34221;45.296;9.516;2023-08-07T00:07:21;21.40;27.70
47813;DHT22;34221;45.296;9.516;2023-08-07T00:07:36;21.40;28.20
47813;DHT22;34221;45.296;9.516;2023-08-07T00:07:51;21.40;28.80
47813;DHT22;34221;45.296;9.516;2023-08-07T00:08:06;21.40;28.80
47813;DHT22;34221;45.296;9.516;2023-08-07T00:08:21;21.40;28.10
47813;DHT22;34221;45.296;9.516;2023-08-07T00:08:36;21.40;27.20
47813;DHT22;34221;45.296;9.516;2023-08-07T00:08:52;21.40;28.10
47813;DHT22;34221;45.296;9.516;2023-08-07T00:09:07;21.30;27.90
47813;DHT22;34221;45.296;9.516;2023-08-07T00:09:22;21.30;29.20
47813;DHT22;34221;45.296;9.516;2023-08-07T00:09:37;21.30;27.70
47813;DHT22;34221;45.296;9.516;2023-08-07T00:09:52;21.30;28.40
47813;DHT22;34221;45.296;9.516;2023-08-07T00:10:07;21.30;27.80
47813;DHT22;34221;45.296;9.516;2023-08-07T00:10:22;21.30;28.00
47813;DHT22;34221;45.296;9.516;2023-08-07T00:10:37;21.30;28.40
47813;DHT22;34221;45.296;9.516;2023-08-07T00:10:52;21.30;29.80
47813;DHT22;34221;45.296;9.516;2023-08-07T00:11:11;21.30;30.00
47813;DHT22;34221;45.296;9.516;2023-08-07T00:11:26;21.30;28.90
47813;DHT22;34221;45.296;9.516;2023-08-07T00:11:42;21.30;28.50
47813;DHT22;34221;45.296;9.516;2023-08-07T00:11:57;21.30;27.60
47813;DHT22;34221;45.296;9.516;2023-08-07T00:12:12;21.30;27.80
47813;DHT22;34221;45.296;9.516;2023-08-07T00:12:27;21.30;28.40
47813;DHT22;34221;45.296;9.516;2023-08-07T00:12:42;21.30;29.00
47813;DHT22;34221;45.296;9.516;2023-08-07T00:12:57;21.30;28.40
47813;DHT22;34221;45.296;9.516;2023-08-07T00:13:12;21.30;28.60
47813;DHT22;34221;45.296;9.516;2023-08-07T00:13:27;21.30;28.70
47813;DHT22;34221;45.296;9.516;2023-08-07T00:13:42;21.20;28.40
47813;DHT22;34221;45.296;9.516;2023-08-07T00:13:58;21.20;28.20
47813;DHT22;34221;45.296;9.516;2023-08-07T00:14:13;21.20;29.80
47813;DHT22;34221;45.296;9.516;2023-08-07T00:14:28;21.20;29.50
47813;DHT22;34221;45.296;9.516;2023-08-07T00:14:43;21.20;28.20
47813;DHT22;34221;45.296;9.516;2023-08-07T00:14:58;21.30;28.60
47813;DHT22;34221;45.296;9.516;2023-08-07T00:15:13;21.20;29.90
47813;DHT22;34221;45.296;9.516;2023-08-07T00:15:28;21.20;28.90
47813;DHT22;34221;45.296;9.516;2023-08-07T00:15:43;21.20;30.00
47813;DHT22;34221;45.296;9.516;2023-08-07T00:15:59;21.20;28.90
47813;DHT22;34221;45.296;9.516;2023-08-07T00:16:14;21.20;28.60
47813;DHT22;34221;45.296;9.516;2023-08-07T00:16:29;21.20;29.70
47813;DHT22;34221;45.296;9.516;2023-08-07T00:16:44;21.20;27.80
47813;DHT22;34221;45.296;9.516;2023-08-07T00:16:59;21.20;28.10
47813;DHT22;34221;45.296;9.516;2023-08-07T00:17:14;21.10;28.40
47813;DHT22;34221;45.296;9.516;2023-08-07T00:17:29;21.10;28.50
47813;DHT22;34221;45.296;9.516;2023-08-07T00:17:44;21.10;28.20
47813;DHT22;34221;45.296;9.516;2023-08-07T00:18:00;21.10;27.70
47813;DHT22;34221;45.296;9.516;2023-08-07T00:18:15;21.10;28.10
47813;DHT22;34221;45.296;9.516;2023-08-07T00:18:30;21.10;27.90
47813;DHT22;34221;45.296;9.516;2023-08-07T00:18:45;21.10;28.00
47813;DHT22;34221;45.296;9.516;2023-08-07T00:18:59;21.10;28.70
47813;DHT22;34221;45.296;9.516;2023-08-07T00:19:14;21.00;27.90
47813;DHT22;34221;45.296;9.516;2023-08-07T00:19:29;21.00;27.50
47813;DHT22;34221;45.296;9.516;2023-08-07T00:19:44;21.00;28.10
47813;DHT22;34221;45.296;9.516;2023-08-07T00:20:00;21.00;28.30
47813;DHT22;34221;45.296;9.516;2023-08-07T00:20:15;21.00;27.80
47813;DHT22;34221;45.296;9.516;2023-08-07T00:20:29;21.00;28.20
47813;DHT22;34221;45.296;9.516;2023-08-07T00:20:44;20.90;28.20
47813;DHT22;34221;45.296;9.516;2023-08-07T00:20:59;21.00;29.90
47813;DHT22;34221;45.296;9.516;2023-08-07T00:21:14;20.90;28.80
47813;DHT22;34221;45.296;9.516;2023-08-07T00:21:29;20.90;28.20
47813;DHT22;34221;45.296;9.516;2023-08-07T00:21:44;20.90;29.80
47813;DHT22;34221;45.296;9.516;2023-08-07T00:21:59;20.90;29.30
47813;DHT22;34221;45.296;9.516;2023-08-07T00:22:14;20.90;28.90
47813;DHT22;34221;45.296;9.516;2023-08-07T00:22:29;20.90;29.50
47813;DHT22;34221;45.296;9.516;2023-08-07T00:22:44;20.90;28.50
47813;DHT22;34221;45.296;9.516;2023-08-07T00:22:59;20.90;28.80
47813;DHT22;34221;45.296;9.516;2023-08-07T00:23:14;20.90;29.20
47813;DHT22;34221;45.296;9.516;2023-08-07T00:23:29;20.90;28.30
47813;DHT22;34221;45.296;9.516;2023-08-07T00:23:44;20.90;28.50
47813;DHT22;34221;45.296;9.516;2023-08-07T00:23:59;20.90;28.10
47813;DHT22;34221;45.296;9.516;2023-08-07T00:24:14;20.90;28.30
47813;DHT22;34221;45.296;9.516;2023-08-07T00:24:29;20.90;28.00
47813;DHT22;34221;45.296;9.516;2023-08-07T00:24:44;20.80;28.80
47813;DHT22;34221;45.296;9.516;2023-08-07T00:24:59;20.80;28.60
47813;DHT22;34221;45.296;9.516;2023-08-07T00:25:14;20.80;28.60
47813;DHT22;34221;45.296;9.516;2023-08-07T00:25:29;20.80;28.40
47813;DHT22;34221;45.296;9.516;2023-08-07T00:25:44;20.80;28.30
47813;DHT22;34221;45.296;9.516;2023-08-07T00:25:59;20.80;27.90
47813;DHT22;34221;45.296;9.516;2023-08-07T00:26:14;20.80;27.90
47813;DHT22;34221;45.296;9.516;2023-08-07T00:26:29;20.80;28.00
47813;DHT22;34221;45.296;9.516;2023-08-07T00:26:44;20.80;27.80
47813;DHT22;34221;45.296;9.516;2023-08-07T00:26:59;20.80;28.00
47813;DHT22;34221;45.296;9.516;2023-08-07T00:27:14;20.80;28.30
47813;DHT22;34221;45.296;9.516;2023-08-07T00:27:29;20.80;28.50
47813;DHT22;34221;45.296;9.516;2023-08-07T00:27:44;20.80;28.00
47813;DHT22;34221;45.296;9.516;2023-08-07T00:27:58;20.80;28.50
47813;DHT22;34221;45.296;9.516;2023-08-07T00:28:14;20.80;28.80
47813;DHT22;34221;45.296;9.516;2023-08-07T00:28:29;20.80;28.40
47813;DHT22;34221;45.296;9.516;2023-08-07T00:28:44;20.80;28.80
47813;DHT22;34221;45.296;9.516;2023-08-07T00:29:18;20.80;29.00
47813;DHT22;34221;45.296;9.516;2023-08-07T00:29:33;20.80;29.60
47813;DHT22;34221;45.296;9.516;2023-08-07T00:29:48;20.80;28.90
47813;DHT22;34221;45.296;9.516;2023-08-07T00:30:03;20.80;28.60
47813;DHT22;34221;45.296;9.516;2023-08-07T00:30:18;20.80;29.00
47813;DHT22;34221;45.296;9.516;2023-08-07T00:30:33;20.80;29.50
47813;DHT22;34221;45.296;9.516;2023-08-07T00:30:48;20.70;29.90
47813;DHT22;34221;45.296;9.516;2023-08-07T00:31:03;20.80;28.60
47813;DHT22;34221;45.296;9.516;2023-08-07T00:31:18;20.80;29.30
47813;DHT22;34221;45.296;9.516;2023-08-07T00:31:33;20.80;29.30
47813;DHT22;34221;45.296;9.516;2023-08-07T00:31:48;20.70;28.90
47813;DHT22;34221;45.296;9.516;2023-08-07T00:32:04;20.80;28.80
47813;DHT22;34221;45.296;9.516;2023-08-07T00:32:19;20.70;29.20
47813;DHT22;34221;45.296;9.516;2023-08-07T00:32:42;20.70;28.80
47813;DHT22;34221;45.296;9.516;2023-08-07T00:32:57;20.70;28.80
47813;DHT22;34221;45.296;9.516;2023-08-07T00:33:12;20.70;28.50
47813;DHT22;34221;45.296;9.516;2023-08-07T00:33:27;20.70;27.90
47813;DHT22;34221;45.296;9.516;2023-08-07T00:33:41;20.70;28.90
47813;DHT22;34221;45.296;9.516;2023-08-07T00:33:59;20.70;28.20
47813;DHT22;34221;45.296;9.516;2023-08-07T00:34:14;20.70;27.60
47813;DHT22;34221;45.296;9.516;2023-08-07T00:34:29;20.70;28.50
47813;DHT22;34221;45.296;9.516;2023-08-07T00:34:45;20.60;28.10
47813;DHT22;34221;45.296;9.516;2023-08-07T00:35:01;20.60;28.20
47813;DHT22;34221;45.296;9.516;2023-08-07T00:35:16;20.70;29.50
47813;DHT22;34221;45.296;9.516;2023-08-07T00:35:30;20.70;30.50
47813;DHT22;34221;45.296;9.516;2023-08-07T00:35:45;20.70;28.60
47813;DHT22;34221;45.296;9.516;2023-08-07T00:36:00;20.70;29.60
47813;DHT22;34221;45.296;9.516;2023-08-07T00:36:15;20.60;28.40
47813;DHT22;34221;45.296;9.516;2023-08-07T00:36:30;20.60;28.20
47813;DHT22;34221;45.296;9.516;2023-08-07T00:36:49;20.70;29.30
47813;DHT22;34221;45.296;9.516;2023-08-07T00:37:05;20.70;28.20
47813;DHT22;34221;45.296;9.516;2023-08-07T00:37:19;20.70;28.20
47813;DHT22;34221;45.296;9.516;2023-08-07T00:37:34;20.60;27.90
47813;DHT22;34221;45.296;9.516;2023-08-07T00:37:50;20.60;30.10
47813;DHT22;34221;45.296;9.516;2023-08-07T00:38:05;20.60;29.20
47813;DHT22;34221;45.296;9.516;2023-08-07T00:38:20;20.60;30.60
47813;DHT22;34221;45.296;9.516;2023-08-07T00:38:36;20.60;31.60
47813;DHT22;34221;45.296;9.516;2023-08-07T00:38:50;20.60;30.80
47813;DHT22;34221;45.296;9.516;2023-08-07T00:39:06;20.60;34.90
47813;DHT22;34221;45.296;9.516;2023-08-07T00:39:22;20.60;29.90
47813;DHT22;34221;45.296;9.516;2023-08-07T00:39:37;20.60;28.90
47813;DHT22;34221;45.296;9.516;2023-08-07T00:39:52;20.60;29.80
47813;DHT22;34221;45.296;9.516;2023-08-07T00:40:07;20.60;31.70
47813;DHT22;34221;45.296;9.516;2023-08-07T00:40:23;20.60;30.90
47813;DHT22;34221;45.296;9.516;2023-08-07T00:40:39;20.60;31.90
47813;DHT22;34221;45.296;9.516;2023-08-07T00:40:54;20.60;29.70
47813;DHT22;34221;45.296;9.516;2023-08-07T00:41:09;20.60;31.80
47813;DHT22;34221;45.296;9.516;2023-08-07T00:41:24;20.60;29.80
47813;DHT22;34221;45.296;9.516;2023-08-07T00:41:39;20.60;29.20
47813;DHT22;34221;45.296;9.516;2023-08-07T00:41:54;20.60;31.60
47813;DHT22;34221;45.296;9.516;2023-08-07T00:42:09;20.60;30.20
47813;DHT22;34221;45.296;9.516;2023-08-07T00:42:24;20.60;29.80
47813;DHT22;34221;45.296;9.516;2023-08-07T00:42:42;20.60;30.70
47813;DHT22;34221;45.296;9.516;2023-08-07T00:42:57;20.60;30.50
47813;DHT22;34221;45.296;9.516;2023-08-07T00:43:11;20.60;29.40
47813;DHT22;34221;45.296;9.516;2023-08-07T00:43:26;20.60;29.80
47813;DHT22;34221;45.296;9.516;2023-08-07T00:43:41;20.60;29.40
47813;DHT22;34221;45.296;9.516;2023-08-07T00:43:56;20.60;29.20
47813;DHT22;34221;45.296;9.516;2023-08-07T00:44:11;20.60;28.60
47813;DHT22;34221;45.296;9.516;2023-08-07T00:44:26;20.60;28.60
47813;DHT22;34221;45.296;9.516;2023-08-07T00:44:41;20.60;32.40
47813;DHT22;34221;45.296;9.516;2023-08-07T00:44:56;20.50;29.30
47813;DHT22;34221;45.296;9.516;2023-08-07T00:45:11;20.50;30.00
47813;DHT22;34221;45.296;9.516;2023-08-07T00:45:27;20.50;29.20
47813;DHT22;34221;45.296;9.516;2023-08-07T00:45:43;20.50;29.40
47813;DHT22;34221;45.296;9.516;2023-08-07T00:46:00;20.50;29.40
47813;DHT22;34221;45.296;9.516;2023-08-07T00:46:16;20.50;30.70
47813;DHT22;34221;45.296;9.516;2023-08-07T00:46:31;20.50;32.20
47813;DHT22;34221;45.296;9.516;2023-08-07T00:46:46;20.50;34.50
47813;DHT22;34221;45.296;9.516;2023-08-07T00:47:02;20.60;33.80
47813;DHT22;34221;45.296;9.516;2023-08-07T00:47:17;20.60;30.80
47813;DHT22;34221;45.296;9.516;2023-08-07T00:47:32;20.60;30.00
47813;DHT22;34221;45.296;9.516;2023-08-07T00:47:48;20.50;30.20
47813;DHT22;34221;45.296;9.516;2023-08-07T00:48:04;20.50;30.10
47813;DHT22;34221;45.296;9.516;2023-08-07T00:48:20;20.50;32.40
47813;DHT22;34221;45.296;9.516;2023-08-07T00:48:35;20.60;32.50
47813;DHT22;34221;45.296;9.516;2023-08-07T00:48:52;20.60;37.00
47813;DHT22;34221;45.296;9.516;2023-08-07T00:49:08;20.60;36.00
47813;DHT22;34221;45.296;9.516;2023-08-07T00:49:24;20.60;32.40
47813;DHT22;34221;45.296;9.516;2023-08-07T00:49:40;20.70;32.00
47813;DHT22;34221;45.296;9.516;2023-08-07T00:49:57;20.70;35.10
47813;DHT22;34221;45.296;9.516;2023-08-07T00:50:12;20.70;33.10
47813;DHT22;34221;45.296;9.516;2023-08-07T00:50:28;20.70;34.50
47813;DHT22;34221;45.296;9.516;2023-08-07T00:50:44;20.60;34.10
47813;DHT22;34221;45.296;9.516;2023-08-07T00:51:01;20.60;34.20
47813;DHT22;34221;45.296;9.516;2023-08-07T00:51:32;20.50;31.40
47813;DHT22;34221;45.296;9.516;2023-08-07T00:51:47;20.50;32.10
47813;DHT22;34221;45.296;9.516;2023-08-07T00:52:03;20.50;31.30
47813;DHT22;34221;45.296;9.516;2023-08-07T00:52:18;20.50;34.30
47813;DHT22;34221;45.296;9.516;2023-08-07T00:52:33;20.40;31.80
47813;DHT22;34221;45.296;9.516;2023-08-07T00:52:48;20.40;31.80
47813;DHT22;34221;45.296;9.516;2023-08-07T00:53:04;20.40;31.10
47813;DHT22;34221;45.296;9.516;2023-08-07T00:53:19;20.40;33.40
47813;DHT22;34221;45.296;9.516;2023-08-07T00:53:38;20.40;32.30
47813;DHT22;34221;45.296;9.516;2023-08-07T00:53:54;20.40;31.40
47813;DHT22;34221;45.296;9.516;2023-08-07T00:54:10;20.40;31.20
47813;DHT22;34221;45.296;9.516;2023-08-07T00:54:26;20.40;31.00
47813;DHT22;34221;45.296;9.516;2023-08-07T00:54:41;20.30;30.70
47813;DHT22;34221;45.296;9.516;2023-08-07T00:54:57;20.30;30.80
47813;DHT22;34221;45.296;9.516;2023-08-07T00:55:12;20.30;30.50
47813;DHT22;34221;45.296;9.516;2023-08-07T00:55:28;20.30;31.70
47813;DHT22;34221;45.296;9.516;2023-08-07T00:55:45;20.30;34.00
47813;DHT22;34221;45.296;9.516;2023-08-07T00:56:00;20.30;32.10
47813;DHT22;34221;45.296;9.516;2023-08-07T00:56:17;20.30;32.20
47813;DHT22;34221;45.296;9.516;2023-08-07T00:56:32;20.30;31.50
47813;DHT22;34221;45.296;9.516;2023-08-07T00:56:47;20.30;32.80
47813;DHT22;34221;45.296;9.516;2023-08-07T00:57:10;20.30;31.70
47813;DHT22;34221;45.296;9.516;2023-08-07T00:57:32;20.30;32.30
47813;DHT22;34221;45.296;9.516;2023-08-07T00:57:47;20.30;32.00
47813;DHT22;34221;45.296;9.516;2023-08-07T00:58:02;20.30;34.10
47813;DHT22;34221;45.296;9.516;2023-08-07T00:58:17;20.30;35.80
47813;DHT22;34221;45.296;9.516;2023-08-07T00:58:33;20.30;34.20
47813;DHT22;34221;45.296;9.516;2023-08-07T00:58:49;20.30;33.20
47813;DHT22;34221;45.296;9.516;2023-08-07T00:59:05;20.30;32.70
47813;DHT22;34221;45.296;9.516;2023-08-07T00:59:20;20.30;32.60
47813;DHT22;34221;45.296;9.516;2023-08-07T00:59:36;20.30;36.10
47813;DHT22;34221;45.296;9.516;2023-08-07T00:59:52;20.30;32.40
47813;DHT22;34221;45.296;9.516;2023-08-07T01:00:07;20.30;31.80
47813;DHT22;34221;45.296;9.516;2023-08-07T01:00:22;20.30;35.40
47813;DHT22;34221;45.296;9.516;2023-08-07T01:00:37;20.30;32.80
47813;DHT22;34221;45.296;9.516;2023-08-07T01:00:52;20.30;32.10
47813;DHT22;34221;45.296;9.516;2023-08-07T01:01:07;20.30;33.70
47813;DHT22;34221;45.296;9.516;2023-08-07T01:01:23;20.20;33.40
47813;DHT22;34221;45.296;9.516;2023-08-07T01:01:38;20.20;32.80
47813;DHT22;34221;45.296;9.516;2023-08-07T01:01:54;20.20;32.10
47813;DHT22;34221;45.296;9.516;2023-08-07T01:02:10;20.20;31.30
47813;DHT22;34221;45.296;9.516;2023-08-07T01:02:26;20.20;31.70
47813;DHT22;34221;45.296;9.516;2023-08-07T01:02:41;20.20;31.70
47813;DHT22;34221;45.296;9.516;2023-08-07T01:02:57;20.20;31.30
47813;DHT22;34221;45.296;9.516;2023-08-07T01:03:12;20.20;34.30
47813;DHT22;34221;45.296;9.516;2023-08-07T01:03:28;20.20;31.40
47813;DHT22;34221;45.296;9.516;2023-08-07T01:03:43;20.20;35.10
47813;DHT22;34221;45.296;9.516;2023-08-07T01:03:58;20.20;32.80
47813;DHT22;34221;45.296;9.516;2023-08-07T01:04:15;20.20;31.60
47813;DHT22;34221;45.296;9.516;2023-08-07T01:04:31;20.20;30.80
47813;DHT22;34221;45.296;9.516;2023-08-07T01:04:46;20.20;32.50
47813;DHT22;34221;45.296;9.516;2023-08-07T01:05:01;20.20;31.10
47813;DHT22;34221;45.296;9.516;2023-08-07T01:05:17;20.20;34.30
47813;DHT22;34221;45.296;9.516;2023-08-07T01:05:34;20.20;36.10
47813;DHT22;34221;45.296;9.516;2023-08-07T01:05:49;20.20;31.90
47813;DHT22;34221;45.296;9.516;2023-08-07T01:06:04;20.20;31.90
47813;DHT22;34221;45.296;9.516;2023-08-07T01:06:19;20.20;33.00
47813;DHT22;34221;45.296;9.516;2023-08-07T01:06:34;20.20;30.80
47813;DHT22;34221;45.296;9.516;2023-08-07T01:06:49;20.20;32.20
47813;DHT22;34221;45.296;9.516;2023-08-07T01:07:04;20.20;34.10
47813;DHT22;34221;45.296;9.516;2023-08-07T01:07:19;20.20;33.20
47813;DHT22;34221;45.296;9.516;2023-08-07T01:07:34;20.20;33.50
47813;DHT22;34221;45.296;9.516;2023-08-07T01:07:49;20.20;31.70
47813;DHT22;34221;45.296;9.516;2023-08-07T01:08:09;20.20;32.00
47813;DHT22;34221;45.296;9.516;2023-08-07T01:08:24;20.20;31.70
47813;DHT22;34221;45.296;9.516;2023-08-07T01:08:39;20.20;31.00
47813;DHT22;34221;45.296;9.516;2023-08-07T01:08:55;20.20;32.50
47813;DHT22;34221;45.296;9.516;2023-08-07T01:09:10;20.20;31.60
47813;DHT22;34221;45.296;9.516;2023-08-07T01:09:25;20.20;31.50
47813;DHT22;34221;45.296;9.516;2023-08-07T01:09:40;20.20;31.40
47813;DHT22;34221;45.296;9.516;2023-08-07T01:09:55;20.20;32.00
47813;DHT22;34221;45.296;9.516;2023-08-07T01:10:11;20.20;31.70
47813;DHT22;34221;45.296;9.516;2023-08-07T01:10:49;20.20;31.60
47813;DHT22;34221;45.296;9.516;2023-08-07T01:12:14;20.20;31.40
47813;DHT22;34221;45.296;9.516;2023-08-07T01:12:34;20.20;33.50
47813;DHT22;34221;45.296;9.516;2023-08-07T01:13:04;20.20;31.10
47813;DHT22;34221;45.296;9.516;2023-08-07T01:13:42;20.20;29.70
47813;DHT22;34221;45.296;9.516;2023-08-07T01:14:42;20.10;29.90
47813;DHT22;34221;45.296;9.516;2023-08-07T01:15:30;20.10;30.50
47813;DHT22;34221;45.296;9.516;2023-08-07T01:15:47;20.10;30.20
47813;DHT22;34221;45.296;9.516;2023-08-07T01:16:14;20.10;29.90
47813;DHT22;34221;45.296;9.516;2023-08-07T01:17:05;20.00;30.30
47813;DHT22;34221;45.296;9.516;2023-08-07T01:17:23;20.00;30.10
47813;DHT22;34221;45.296;9.516;2023-08-07T01:17:39;20.00;30.10
47813;DHT22;34221;45.296;9.516;2023-08-07T01:17:56;20.00;29.90
47813;DHT22;34221;45.296;9.516;2023-08-07T01:18:13;20.00;31.00
47813;DHT22;34221;45.296;9.516;2023-08-07T01:18:29;20.00;30.40
47813;DHT22;34221;45.296;9.516;2023-08-07T01:18:46;20.00;30.40
47813;DHT22;34221;45.296;9.516;2023-08-07T01:19:03;20.00;31.20
47813;DHT22;34221;45.296;9.516;2023-08-07T01:19:23;20.00;31.50
47813;DHT22;34221;45.296;9.516;2023-08-07T01:19:41;20.00;31.10
47813;DHT22;34221;45.296;9.516;2023-08-07T01:19:56;20.00;30.70
47813;DHT22;34221;45.296;9.516;2023-08-07T01:20:12;20.00;30.00
47813;DHT22;34221;45.296;9.516;2023-08-07T01:20:27;20.00;31.70
47813;DHT22;34221;45.296;9.516;2023-08-07T01:20:42;20.00;31.10
47813;DHT22;34221;45.296;9.516;2023-08-07T01:20:57;20.00;30.70
47813;DHT22;34221;45.296;9.516;2023-08-07T01:21:19;20.00;30.50
47813;DHT22;34221;45.296;9.516;2023-08-07T01:21:34;20.00;29.80
47813;DHT22;34221;45.296;9.516;2023-08-07T01:21:49;20.00;30.80
47813;DHT22;34221;45.296;9.516;2023-08-07T01:22:08;20.00;31.00
47813;DHT22;34221;45.296;9.516;2023-08-07T01:22:27;20.00;31.20
47813;DHT22;34221;45.296;9.516;2023-08-07T01:22:42;20.00;30.50
47813;DHT22;34221;45.296;9.516;2023-08-07T01:22:57;19.90;29.90
47813;DHT22;34221;45.296;9.516;2023-08-07T01:23:12;19.90;30.60
47813;DHT22;34221;45.296;9.516;2023-08-07T01:23:27;20.00;30.50
47813;DHT22;34221;45.296;9.516;2023-08-07T01:23:42;19.90;30.10
47813;DHT22;34221;45.296;9.516;2023-08-07T01:23:57;19.90;31.10
47813;DHT22;34221;45.296;9.516;2023-08-07T01:24:12;19.90;30.20
47813;DHT22;34221;45.296;9.516;2023-08-07T01:24:27;19.90;30.40
47813;DHT22;34221;45.296;9.516;2023-08-07T01:24:47;19.90;31.10
47813;DHT22;34221;45.296;9.516;2023-08-07T01:25:03;19.90;30.80
47813;DHT22;34221;45.296;9.516;2023-08-07T01:25:19;19.90;30.50
47813;DHT22;34221;45.296;9.516;2023-08-07T01:25:35;19.90;31.00
47813;DHT22;34221;45.296;9.516;2023-08-07T01:25:52;19.80;30.30
47813;DHT22;34221;45.296;9.516;2023-08-07T01:26:07;19.80;30.40
47813;DHT22;34221;45.296;9.516;2023-08-07T01:26:22;19.80;30.90
47813;DHT22;34221;45.296;9.516;2023-08-07T01:26:39;19.90;32.50
47813;DHT22;34221;45.296;9.516;2023-08-07T01:26:57;19.80;30.80
47813;DHT22;34221;45.296;9.516;2023-08-07T01:28:05;19.80;30.80
47813;DHT22;34221;45.296;9.516;2023-08-07T01:28:36;19.80;30.70
47813;DHT22;34221;45.296;9.516;2023-08-07T01:29:18;19.80;30.20
47813;DHT22;34221;45.296;9.516;2023-08-07T01:30:02;19.80;30.20
47813;DHT22;34221;45.296;9.516;2023-08-07T01:30:35;19.80;30.70
47813;DHT22;34221;45.296;9.516;2023-08-07T01:30:55;19.80;32.10
47813;DHT22;34221;45.296;9.516;2023-08-07T01:31:16;19.80;33.20
47813;DHT22;34221;45.296;9.516;2023-08-07T01:31:33;19.80;30.60
47813;DHT22;34221;45.296;9.516;2023-08-07T01:31:49;19.80;30.30
47813;DHT22;34221;45.296;9.516;2023-08-07T01:32:08;19.80;30.50
47813;DHT22;34221;45.296;9.516;2023-08-07T01:33:10;19.80;30.60
47813;DHT22;34221;45.296;9.516;2023-08-07T01:33:26;19.80;30.30
47813;DHT22;34221;45.296;9.516;2023-08-07T01:34:04;19.80;30.20
47813;DHT22;34221;45.296;9.516;2023-08-07T01:34:22;19.80;30.90
47813;DHT22;34221;45.296;9.516;2023-08-07T01:34:41;19.80;33.00
47813;DHT22;34221;45.296;9.516;2023-08-07T01:34:56;19.80;30.80
47813;DHT22;34221;45.296;9.516;2023-08-07T01:35:14;19.80;31.30
47813;DHT22;34221;45.296;9.516;2023-08-07T01:35:34;19.80;30.90
47813;DHT22;34221;45.296;9.516;2023-08-07T01:35:56;19.80;30.00
47813;DHT22;34221;45.296;9.516;2023-08-07T01:36:12;19.80;29.70
47813;DHT22;34221;45.296;9.516;2023-08-07T01:36:28;19.80;30.00
47813;DHT22;34221;45.296;9.516;2023-08-07T01:36:45;19.80;30.60
47813;DHT22;34221;45.296;9.516;2023-08-07T01:37:01;19.80;30.10
47813;DHT22;34221;45.296;9.516;2023-08-07T01:37:17;19.80;30.90
47813;DHT22;34221;45.296;9.516;2023-08-07T01:37:38;19.80;31.50
47813;DHT22;34221;45.296;9.516;2023-08-07T01:37:56;19.80;31.50
47813;DHT22;34221;45.296;9.516;2023-08-07T01:38:12;19.80;30.40
47813;DHT22;34221;45.296;9.516;2023-08-07T01:38:29;19.80;30.60
47813;DHT22;34221;45.296;9.516;2023-08-07T01:38:45;19.80;30.30
47813;DHT22;34221;45.296;9.516;2023-08-07T01:39:01;19.80;30.40
47813;DHT22;34221;45.296;9.516;2023-08-07T01:39:20;19.70;30.60
47813;DHT22;34221;45.296;9.516;2023-08-07T01:39:35;19.70;30.60
47813;DHT22;34221;45.296;9.516;2023-08-07T01:39:51;19.70;31.20
47813;DHT22;34221;45.296;9.516;2023-08-07T01:40:09;19.70;31.00
47813;DHT22;34221;45.296;9.516;2023-08-07T01:40:25;19.70;30.80
47813;DHT22;34221;45.296;9.516;2023-08-07T01:40:43;19.70;30.50
47813;DHT22;34221;45.296;9.516;2023-08-07T01:41:00;19.70;31.50
47813;DHT22;34221;45.296;9.516;2023-08-07T01:41:16;19.70;32.50
47813;DHT22;34221;45.296;9.516;2023-08-07T01:41:31;19.70;33.30
47813;DHT22;34221;45.296;9.516;2023-08-07T01:41:47;19.70;31.20
47813;DHT22;34221;45.296;9.516;2023-08-07T01:42:03;19.70;30.90
47813;DHT22;34221;45.296;9.516;2023-08-07T01:42:19;19.70;32.50
47813;DHT22;34221;45.296;9.516;2023-08-07T01:42:54;19.70;35.00
47813;DHT22;34221;45.296;9.516;2023-08-07T01:43:09;19.70;32.90
47813;DHT22;34221;45.296;9.516;2023-08-07T01:43:24;19.70;32.90
47813;DHT22;34221;45.296;9.516;2023-08-07T01:43:40;19.70;32.60
47813;DHT22;34221;45.296;9.516;2023-08-07T01:43:55;19.70;31.60
47813;DHT22;34221;45.296;9.516;2023-08-07T01:44:10;19.70;31.40
47813;DHT22;34221;45.296;9.516;2023-08-07T01:44:25;19.70;31.90
47813;DHT22;34221;45.296;9.516;2023-08-07T01:44:41;19.80;31.90
47813;DHT22;34221;45.296;9.516;2023-08-07T01:44:56;19.70;30.80
47813;DHT22;34221;45.296;9.516;2023-08-07T01:45:12;19.70;32.00
47813;DHT22;34221;45.296;9.516;2023-08-07T01:45:28;19.70;33.00
47813;DHT22;34221;45.296;9.516;2023-08-07T01:45:43;19.70;32.80
47813;DHT22;34221;45.296;9.516;2023-08-07T01:45:58;19.70;32.20
47813;DHT22;34221;45.296;9.516;2023-08-07T01:46:14;19.80;32.50
47813;DHT22;34221;45.296;9.516;2023-08-07T01:46:29;19.80;32.10
47813;DHT22;34221;45.296;9.516;2023-08-07T01:46:44;19.80;31.30
47813;DHT22;34221;45.296;9.516;2023-08-07T01:46:59;19.80;32.00
47813;DHT22;34221;45.296;9.516;2023-08-07T01:47:13;19.80;32.80
47813;DHT22;34221;45.296;9.516;2023-08-07T01:47:28;19.80;31.70